Pioche, Nevada Weather observations

Data are for observation ending at time listed.
 Day   Time    Ave.   Ave.  Ave.  Vector   Max.   Stn.    Total    Solar   Ave.  
  of    of     Air    Rel.  Wind   Wind    Wind   Baro.  Precip.   Rad.    Soil  
Year   Day     Temp.  Hum.  Speed  Dir.    Gust   Pres.                    Temp. 
2026   (PST)    F      %     mph   deg.    mph     mb.     in.     W/m2     F   
------------------------------------------------------------------------------
 128    7:10   66.5    27    1.1   309      2.5   819.5    0.00     528    61.5
 128    7:20   67.8    24    0.8   347      2.3   819.4    0.00     565    61.5
 128    7:30   69.0    22    1.1    60      3.8   819.5    0.00     601    61.5
 128    7:40   70.4    20    0.5    26      1.9   819.3    0.00     638    61.5
 128    7:50   71.7    19    0.8   337      3.4   819.4    0.00     675    61.5
 128    8:00   73.0    18    0.8    46      2.9   819.3    0.00     709    61.5
 128    8:10   72.2    18    1.6   322      4.6   819.3    0.00     742    61.5
 128    8:20   72.5    17    0.7   331      5.1   819.3    0.00     776    61.5
 128    8:30   72.3    17    1.9   310      5.9   819.3    0.00     809    61.5
 128    8:40   72.6    15    2.3   293      5.8   819.2    0.00     838    61.4
 128    8:50   73.1    16    2.9   310      7.5   819.1    0.00     866    61.4
 128    9:00   73.3    16    2.2   308      7.7   819.1    0.00     895    61.4
 128    9:10   73.6    16    3.6   310      8.8   819.1    0.00     920    61.4
 128    9:20   74.3    16    4.5   286      8.3   819.0    0.00     943    61.4
 128    9:30   74.3    15    4.8   274     12.9   819.0    0.00     966    61.4
 128    9:40   75.1    14    2.3   282      7.0   819.8    0.00     991    61.4
 128    9:50   76.6    13    2.9   290      6.8   819.1    0.00    1011    61.4
 128   10:00   76.6    12    3.5   286     12.0   818.8    0.00    1030    61.4
 128   10:10   76.7    13    8.4   297     14.9   818.4    0.00    1046    61.4
 128   10:20   76.5    12    6.1   303     12.4   818.4    0.00    1063    61.4
 128   10:30   76.8    13    5.1   239     12.1   818.6    0.00    1078    61.4
 128   10:40   76.6    13    6.6   282     13.6   818.5    0.00    1092    61.5
 128   10:50   76.6    12    6.8   289     14.0   818.6    0.00    1103    61.5
 128   11:00   77.2    13    6.7   282     17.8   818.4    0.00    1103    61.5
 128   11:10   77.1    13    7.4   255     15.3   818.4    0.00    1112    61.5
 128   11:20   76.7    13    5.7   238     11.6   817.8    0.00    1119    61.5
 128   11:30   77.3    13    6.4   254     17.5   817.3    0.00    1122    61.6
 128   11:40   76.9    13    6.4   268     15.6   817.4    0.00    1122    61.7
 128   11:50   78.3    12    5.3   248     13.3   817.6    0.00    1120    61.7
 128   12:00   78.0    12    6.0   265     12.7   817.7    0.00    1116    61.8
 128   12:10   77.7    12    9.3   269     23.0   817.6    0.00    1111    61.8
 128   12:20   78.1    11    6.9   277     11.2   817.6    0.00    1105    61.9
 128   12:30   79.0    10    6.3   266     17.8   817.3    0.00    1094    62.0
 128   12:40   77.7    10    6.7   272     13.8   817.2    0.00    1080    62.0
 128   12:50   78.1    10    6.9   259     17.0   817.3    0.00    1072    62.0
 128   13:00   78.6    11    6.6   267     18.0   817.2    0.00    1059    62.1
 128   13:10   78.5    10    9.9   271     20.0   816.9    0.00    1043    62.2
 128   13:20   78.4    10    8.1   263     18.5   816.9    0.00    1026    62.2
 128   13:30   79.8    11    5.6   234     13.0   816.8    0.00    1005    62.3
 128   13:40   79.3    10    6.5   259     14.7   816.8    0.00     975    62.3
 128   13:50   79.7    11    5.2   264     13.4   817.0    0.00     956    62.4
 128   14:00   80.4    11    6.9   269     15.3   816.7    0.00     936    62.6
 128   14:10   79.8    10    7.5   272     16.9   817.2    0.00     915    62.6
 128   14:20   79.1    10    7.9   265     17.7   819.0    0.00     890    62.7
 128   14:30   78.7    11    7.2   262     15.1   819.3    0.00     580    62.7
 128   14:40   79.0    11    3.5   221      9.5   819.2    0.00      97    62.8
 128   14:50   78.5    11    8.9   273     16.7   819.1    0.00      48    62.9
 128   15:00   78.6    10    6.6   262     14.6   819.0    0.00      47    63.0
 128   15:10   78.7    10    9.2   268     15.1   818.9    0.00      44    63.1
 128   15:20   78.6    10    6.9   265     17.2   818.8    0.00      45    63.1
 128   15:30   78.3    11    7.2   274     19.0   818.8    0.00      40    63.2
 128   15:40   78.6    11    7.9   287     12.9   818.8    0.00      40    63.2
 128   15:50   78.7    10    8.3   289     13.7   818.7    0.00      44    63.2
 128   16:00   78.3    10   10.8   275     19.8   818.6    0.00      44    63.3
 128   16:10   78.4    10    8.3   273     13.3   818.6    0.00      43    63.4
 128   16:20   78.6    10    7.7   273     15.1   818.6    0.00      39    63.4
 128   16:30   78.3    11    8.0   271     12.4   818.6    0.00      37    63.5
 128   16:40   78.4    11    9.0   278     14.7   818.5    0.00      36    63.5
 128   16:50   78.3    11    6.6   270     14.0   818.5    0.00      36    63.6
 128   17:00   78.1    11    8.1   269     14.7   818.4    0.00      38    63.6
 128   17:10   77.8    11    7.5   275     14.2   818.4    0.00      36    63.6
 128   17:20   78.0    11    3.4   253      8.3   818.4    0.00      46    63.7
 128   17:30   78.8    11    2.6   249      5.7   818.3    0.00      46    63.7
 128   17:40   78.9    10    4.6   268     10.2   818.3    0.00     123    63.7
 128   17:50   78.4    11    3.2   267      6.8   818.4    0.00     143    63.8
 128   18:00   77.9    10    3.8   260      8.6   818.4    0.00     106    63.8
 128   18:10   77.2    11    2.0   261      4.8   818.4    0.00      67    63.9
 128   18:20   75.4    12    3.4   265      7.2   818.4    0.00      25    64.0
 128   18:30   73.7    12    3.9   270      8.0   818.5    0.00       8    64.1
 128   18:40   72.4    13    2.5   256      5.6   818.6    0.00       5    64.1
 128   18:50   72.4    12    3.8   261      7.6   818.6    0.00       1    64.2
 128   19:00   72.7    12    4.5   263      9.0   818.7    0.00       0    64.2
 128   19:10   72.7    12    3.4   255      5.8   818.8    0.00       0    64.3
 128   19:20   71.9    13    1.9   242      5.3   818.8    0.00       0    64.3
 128   19:30   70.2    14    1.5   225      2.7   818.9    0.00       0    64.4
 128   19:40   69.1    15    1.7   242      4.5   818.9    0.00       0    64.4
 128   19:50   70.4    13    2.2   248      4.4   819.0    0.00       0    64.4
 128   20:00   70.4    14    2.6   250      5.7   819.0    0.00       0    64.4
 128   20:10   71.1    13    3.1   256      6.0   819.0    0.00       0    64.4
 128   20:20   71.1    13    3.4   254      6.6   819.0    0.00       0    64.4
 128   20:30   71.5    13    4.0   260      7.5   819.1    0.00       0    64.4
 128   20:40   71.3    13    3.6   261      5.8   819.1    0.00       0    64.4
 128   20:50   71.0    14    3.1   260      6.2   819.2    0.00       0    64.4
 128   21:00   70.5    14    2.2   250      3.6   819.2    0.00       0    64.4
 128   21:10   69.4    15    2.1   289      3.2   819.2    0.00       0    64.5
 128   21:20   66.2    18    1.3   293      2.9   819.2    0.00       0    64.5
 128   21:30   64.5    20    0.4     7      1.2   819.1    0.00       0    64.5
 128   21:40   63.7    20    0.0   211      0.7   819.1    0.00       0    64.5
 128   21:50   62.9    21    0.7   187      1.8   819.1    0.00       0    64.5
 128   22:00   65.9    18    2.3   234      6.4   819.1    0.00       0    64.5
 128   22:10   68.9    15    3.1   215      6.6   819.1    0.00       0    64.4
 128   22:20   69.7    13    2.4   202      7.2   819.2    0.00       0    64.4
 128   22:30   62.7    20    3.6    80      7.0   819.3    0.00       0    64.4
 128   22:40   61.3    21    2.4   102      4.8   819.3    0.00       0    64.4
 128   22:50   61.3    22    2.7    33      7.0   819.4    0.00       0    64.4
 128   23:00   57.7    26    3.4   236      6.5   819.7    0.00       0    64.4
 128   23:10   59.3    23    3.3   228      5.7   819.5    0.00       0    64.4
 128   23:20   62.2    20    4.9   267      8.2   819.4    0.00       0    64.4
 128   23:30   62.9    20    4.5   275      6.7   819.4    0.00       0    64.3
 128   23:40   62.6    21    4.0   270      6.5   819.5    0.00       0    64.3
 128   23:50   64.3    18    6.0   272      8.6   819.5    0.00       0    64.3
 129    0:00   60.0    23    1.5   279      4.3   819.7    0.00       0    64.3
 129    0:10   57.8    25    2.4   261      8.7   819.6    0.00       0    64.3
 129    0:20   63.2    20    7.0   272     10.8   819.6    0.00       0    64.2
 129    0:30   63.7    20    6.2   276     10.8   819.6    0.00       0    64.2
 129    0:40   63.8    20    7.8   270     11.8   819.5    0.00       0    64.1
 129    0:50   63.8    20    6.8   272      9.9   819.5    0.00       0    64.1
 129    1:00   63.7    20    7.1   275     11.1   819.5    0.00       0    64.1
 129    1:10   63.2    20    7.1   274     12.2   819.6    0.00       0    64.1
 129    1:20   63.2    20    7.9   272     12.2   819.6    0.00       0    64.0
 129    1:30   63.0    20    7.4   270     10.8   819.7    0.00       0    64.0
 129    1:40   63.0    20    7.8   272     10.9   819.7    0.00       0    64.0
 129    1:50   62.8    21    8.1   269     12.4   819.7    0.00       0    64.0
 129    2:00   62.9    20    8.3   270     11.9   819.7    0.00       0    63.9
 129    2:10   63.0    20    7.9   270     11.7   819.8    0.00       0    63.9
 129    2:20   63.1    20    7.6   267     13.0   819.8    0.00       0    63.8
 129    2:30   63.1    20    7.6   269     10.6   819.8    0.00       0    63.8
 129    2:40   62.9    20    7.2   268     11.0   819.7    0.00       0    63.8
 129    2:50   63.1    20    8.2   269     12.8   819.8    0.00       0    63.8
 129    3:00   62.8    21    8.2   270     12.2   819.7    0.00       0    63.7
 129    3:10   62.5    21    7.6   272     10.6   819.8    0.00       0    63.7
 129    3:20   62.4    21    8.4   270     11.8   819.8    0.00       0    63.7
 129    3:30   62.5    21    8.2   269     11.4   819.9    0.00       0    63.6
 129    3:40   62.3    21    8.2   270     11.7   819.8    0.00       0    63.6
 129    3:50   62.1    22    8.0   270     13.7   819.9    0.00       0    63.6
 129    4:00   61.6    22    7.2   268     10.4   819.9    0.00       0    63.6
 129    4:10   61.4    22    7.4   268     11.3   820.0    0.00       0    63.5
 129    4:20   61.3    22    6.8   268     10.3   820.0    0.00       0    63.5
 129    4:30   61.4    22    5.5   266      9.7   820.2    0.00       0    63.5
 129    4:40   61.4    22    4.0   272      6.8   820.3    0.00       4    63.5
 129    4:50   59.9    24    1.4   281      4.6   820.4    0.00      10    63.4
 129    5:00   58.5    26    3.1   266      6.9   820.5    0.00      14    63.4
 129    5:10   60.3    24    4.2   270      7.2   820.7    0.00      21    63.3
 129    5:20   60.7    23    5.2   272      9.0   820.7    0.00      27    63.3
 129    5:30   61.2    23    5.6   275      9.5   820.8    0.00      31    63.2
 129    5:40   61.2    24    5.1   276      7.5   820.9    0.00      35    63.2
 129    5:50   61.6    23    4.0   276      6.1   821.1    0.00      39    63.2
 129    6:00   61.9    24    5.5   290      8.8   821.2    0.00     131    63.2
 129    6:10   61.4    25    5.2   286      8.6   821.4    0.00     255    63.2
 129    6:20   60.9    25    5.9   285      9.5   821.5    0.00     152    63.2
 129    6:30   61.1    26    5.3   280      7.8   821.5    0.00     176    63.2
 129    6:40   62.6    25    4.6   289      8.6   821.6    0.00     153    63.1
 129    6:50   63.5    24    5.1   289      7.7   821.6    0.00     323    63.1
 129    7:00   64.6    23    4.6   298      8.0   821.7    0.00     473    63.1

Return to Pioche, Nevada graphs page.


Western Regional Climate Center,wrcc@dri.edu